createdAt,value
2022-07-27T00:01:58.644Z,13.70
2022-07-27T00:04:26.106Z,13.60
2022-07-27T00:06:54.511Z,13.60
2022-07-27T00:09:22.362Z,13.60
2022-07-27T00:11:50.053Z,13.50
2022-07-27T00:14:17.503Z,13.60
2022-07-27T00:16:44.964Z,13.70
2022-07-27T00:19:12.765Z,13.80
2022-07-27T00:21:44.649Z,13.90
2022-07-27T00:24:13.712Z,13.90
2022-07-27T00:26:41.292Z,13.90
2022-07-27T00:29:09.141Z,13.80
2022-07-27T00:31:36.824Z,13.80
2022-07-27T00:34:04.298Z,13.70
2022-07-27T00:36:31.598Z,13.60
2022-07-27T00:38:58.886Z,13.60
2022-07-27T00:41:26.271Z,13.40
2022-07-27T00:43:58.525Z,13.30
2022-07-27T00:46:27.631Z,13.30
2022-07-27T00:48:55.126Z,13.20
2022-07-27T00:51:23.235Z,13.10
2022-07-27T00:53:52.636Z,13.10
2022-07-27T00:56:20.514Z,13.10
2022-07-27T00:58:51.508Z,13.10
2022-07-27T01:01:19.591Z,13.10
2022-07-27T01:03:47.937Z,13.10
2022-07-27T01:06:16.198Z,13.00
2022-07-27T01:08:43.861Z,13.00
2022-07-27T01:11:12.074Z,12.90
2022-07-27T01:13:39.539Z,12.90
2022-07-27T01:16:07.589Z,12.90
2022-07-27T01:18:38.194Z,13.00
2022-07-27T01:21:09.395Z,12.90
2022-07-27T01:23:36.837Z,12.90
2022-07-27T01:26:05.613Z,12.80
2022-07-27T01:28:33.026Z,12.80
2022-07-27T01:31:00.534Z,12.70
2022-07-27T01:33:28.022Z,12.70
2022-07-27T01:35:57.312Z,12.60
2022-07-27T01:38:25.135Z,12.50
2022-07-27T01:40:53.902Z,12.50
2022-07-27T01:43:22.234Z,12.50
2022-07-27T01:45:49.980Z,12.40
2022-07-27T01:48:17.539Z,12.40
2022-07-27T01:50:47.608Z,12.30
2022-07-27T01:53:15.198Z,12.30
2022-07-27T01:55:42.528Z,12.30
2022-07-27T01:58:10.230Z,12.20
2022-07-27T02:00:38.108Z,12.10
2022-07-27T02:03:07.472Z,12.00
2022-07-27T02:05:35.650Z,11.90
2022-07-27T02:08:04.551Z,11.80
2022-07-27T02:10:32.277Z,11.80
2022-07-27T02:13:00.109Z,11.70
2022-07-27T02:15:42.922Z,11.60
2022-07-27T02:18:26.684Z,11.60
2022-07-27T02:20:59.329Z,11.50
2022-07-27T02:23:26.887Z,11.40
2022-07-27T02:25:54.312Z,11.30
2022-07-27T02:28:21.994Z,11.30
2022-07-27T02:30:49.380Z,11.30
2022-07-27T02:33:17.211Z,11.30
2022-07-27T02:35:44.738Z,11.20
2022-07-27T02:38:12.117Z,11.20
2022-07-27T02:40:39.544Z,11.20
2022-07-27T02:43:06.894Z,11.10
2022-07-27T02:45:34.214Z,11.10
2022-07-27T02:48:01.587Z,11.10
2022-07-27T02:50:28.938Z,11.00
2022-07-27T02:52:56.338Z,11.00
2022-07-27T02:55:24.357Z,11.00
2022-07-27T02:57:51.768Z,10.80
2022-07-27T03:00:19.358Z,10.80
2022-07-27T03:02:50.228Z,10.80
2022-07-27T03:05:17.759Z,10.80
2022-07-27T03:07:45.351Z,10.80
2022-07-27T03:10:12.704Z,10.70
2022-07-27T03:12:40.295Z,10.70
2022-07-27T03:15:08.210Z,10.70
2022-07-27T03:17:35.606Z,10.70
2022-07-27T03:20:03.209Z,10.70
2022-07-27T03:22:32.598Z,10.60
2022-07-27T03:25:00.787Z,10.60
2022-07-27T03:27:29.121Z,10.60
2022-07-27T03:29:57.271Z,10.60
2022-07-27T03:32:24.843Z,10.50
2022-07-27T03:34:52.235Z,10.50
2022-07-27T03:37:20.071Z,10.50
2022-07-27T03:39:47.439Z,10.50
2022-07-27T03:42:14.843Z,10.50
2022-07-27T03:44:42.309Z,10.40
2022-07-27T03:47:09.788Z,10.40
2022-07-27T03:50:09.597Z,10.40
2022-07-27T03:52:36.946Z,10.40
2022-07-27T03:55:04.727Z,10.30
2022-07-27T03:57:32.091Z,10.30
2022-07-27T03:59:59.584Z,10.30
2022-07-27T04:02:26.955Z,10.30
2022-07-27T04:04:54.412Z,10.30
2022-07-27T04:07:21.722Z,10.30
2022-07-27T04:09:49.048Z,10.30
2022-07-27T04:12:17.644Z,10.40
2022-07-27T04:14:47.487Z,10.40
2022-07-27T04:17:56.075Z,10.50
2022-07-27T04:20:02.207Z,10.50
2022-07-27T04:22:29.694Z,10.70
2022-07-27T04:24:57.180Z,10.90
2022-07-27T04:27:25.966Z,11.20
2022-07-27T04:29:53.398Z,11.40
2022-07-27T04:32:20.817Z,11.80
2022-07-27T04:34:48.280Z,12.60
2022-07-27T04:37:15.817Z,13.30
2022-07-27T04:39:43.254Z,14.00
2022-07-27T04:42:10.584Z,14.70
2022-07-27T04:44:38.289Z,15.60
2022-07-27T04:47:05.709Z,16.20
2022-07-27T04:49:33.071Z,16.80
2022-07-27T04:52:00.411Z,17.30
2022-07-27T04:54:27.821Z,17.90
2022-07-27T04:56:55.336Z,18.10
2022-07-27T04:59:22.729Z,18.60
2022-07-27T05:01:50.210Z,18.80
2022-07-27T05:04:17.659Z,17.90
2022-07-27T05:06:45.007Z,17.00
2022-07-27T05:09:12.980Z,16.10
2022-07-27T05:11:40.616Z,15.60
2022-07-27T05:14:21.292Z,15.10
2022-07-27T05:16:50.074Z,14.80
2022-07-27T05:19:17.542Z,14.50
2022-07-27T05:21:44.999Z,14.30
2022-07-27T05:24:12.437Z,14.10
2022-07-27T05:26:39.792Z,14.00
2022-07-27T05:29:07.176Z,13.90
2022-07-27T05:31:34.715Z,13.90
2022-07-27T05:34:02.102Z,13.90
2022-07-27T05:36:29.479Z,13.90
2022-07-27T05:38:56.888Z,14.00
2022-07-27T05:41:25.811Z,14.20
2022-07-27T05:43:56.848Z,15.30
2022-07-27T05:46:25.604Z,17.30
2022-07-27T05:48:54.855Z,19.30
2022-07-27T05:51:22.285Z,21.10
2022-07-27T05:53:49.710Z,22.70
2022-07-27T05:56:17.014Z,23.80
2022-07-27T05:58:44.443Z,24.70
2022-07-27T06:01:11.831Z,25.40
2022-07-27T06:03:39.319Z,25.90
2022-07-27T06:06:25.252Z,25.90
2022-07-27T06:08:54.031Z,26.30
2022-07-27T06:11:21.683Z,27.00
2022-07-27T06:13:50.644Z,27.60
2022-07-27T06:16:18.930Z,27.90
2022-07-27T06:18:46.349Z,28.40
2022-07-27T06:21:13.809Z,29.00
2022-07-27T06:23:41.257Z,28.60
2022-07-27T06:26:09.348Z,28.60
2022-07-27T06:28:36.730Z,28.80
2022-07-27T06:31:04.117Z,28.50
2022-07-27T06:33:34.261Z,29.20
2022-07-27T06:36:02.568Z,29.50
2022-07-27T06:38:30.110Z,30.20
2022-07-27T06:40:57.939Z,30.00
2022-07-27T06:43:27.652Z,30.40
2022-07-27T06:45:55.218Z,31.10
2022-07-27T06:48:22.793Z,31.30
2022-07-27T06:50:51.516Z,31.70
2022-07-27T06:53:21.313Z,32.00
2022-07-27T06:55:49.993Z,32.60
2022-07-27T06:58:18.122Z,32.80
2022-07-27T07:00:45.997Z,32.20
2022-07-27T07:03:13.435Z,31.70
2022-07-27T07:05:47.101Z,32.50
2022-07-27T07:08:14.910Z,32.70
2022-07-27T07:10:45.869Z,33.30
2022-07-27T07:13:13.800Z,33.50
2022-07-27T07:15:43.219Z,33.40
2022-07-27T07:18:12.417Z,33.20
2022-07-27T07:20:40.431Z,31.60
2022-07-27T07:23:08.367Z,32.80
2022-07-27T07:25:36.670Z,32.70
2022-07-27T07:28:05.651Z,32.80
2022-07-27T07:30:33.970Z,32.10
2022-07-27T07:33:02.349Z,33.80
2022-07-27T07:35:29.976Z,31.70
2022-07-27T07:37:57.322Z,30.20
2022-07-27T07:40:42.553Z,28.70
2022-07-27T07:43:12.712Z,29.10
2022-07-27T07:45:50.860Z,29.50
2022-07-27T07:48:21.295Z,28.30
2022-07-27T07:50:53.279Z,29.40
2022-07-27T07:53:23.570Z,27.90
2022-07-27T07:55:52.848Z,28.00
2022-07-27T07:58:20.901Z,29.70
2022-07-27T08:00:48.490Z,32.40
2022-07-27T08:03:16.382Z,34.10
2022-07-27T08:05:44.157Z,35.00
2022-07-27T08:08:11.586Z,34.70
2022-07-27T08:10:39.000Z,34.60
2022-07-27T08:13:06.673Z,35.10
2022-07-27T08:15:35.757Z,36.20
2022-07-27T08:18:06.892Z,36.90
2022-07-27T08:20:35.362Z,36.80
2022-07-27T08:23:03.626Z,35.60
2022-07-27T08:25:31.718Z,35.10
2022-07-27T08:27:59.370Z,34.80
2022-07-27T08:30:27.275Z,31.80
2022-07-27T08:32:59.911Z,30.10
2022-07-27T08:35:28.430Z,30.70
2022-07-27T08:37:57.150Z,32.00
2022-07-27T08:40:39.798Z,33.30
2022-07-27T08:43:09.411Z,34.00
2022-07-27T08:45:37.716Z,34.60
2022-07-27T08:48:06.388Z,32.60
2022-07-27T08:50:35.294Z,32.70
2022-07-27T08:53:08.960Z,32.80
2022-07-27T08:55:38.488Z,33.50
2022-07-27T08:58:07.530Z,34.80
2022-07-27T09:00:36.138Z,34.70
2022-07-27T09:03:04.093Z,34.60
2022-07-27T09:05:36.923Z,33.90
2022-07-27T09:08:16.947Z,34.30
2022-07-27T09:10:44.739Z,35.10
2022-07-27T09:13:24.012Z,35.70
2022-07-27T09:16:17.564Z,35.30
2022-07-27T09:18:46.824Z,34.30
2022-07-27T09:21:20.870Z,34.60
2022-07-27T09:23:52.892Z,35.10
2022-07-27T09:26:34.192Z,35.20
2022-07-27T09:29:12.858Z,35.50
2022-07-27T09:31:51.804Z,34.70
2022-07-27T09:34:31.145Z,34.00
2022-07-27T09:36:59.141Z,33.80
2022-07-27T09:39:28.075Z,34.30
2022-07-27T09:42:01.319Z,35.00
2022-07-27T09:44:44.053Z,34.90
2022-07-27T09:47:26.875Z,34.80
2022-07-27T09:50:18.311Z,35.10
2022-07-27T09:52:46.900Z,36.20
2022-07-27T09:55:14.503Z,37.80
2022-07-27T09:57:56.512Z,33.60
2022-07-27T10:00:25.740Z,30.60
2022-07-27T10:02:54.182Z,28.00
2022-07-27T10:05:22.782Z,25.60
2022-07-27T10:07:52.867Z,24.70
2022-07-27T10:10:21.691Z,24.20
2022-07-27T10:12:54.519Z,23.60
2022-07-27T10:15:24.437Z,23.50
2022-07-27T10:18:01.834Z,23.60
2022-07-27T10:20:31.775Z,23.30
2022-07-27T10:22:59.572Z,23.30
2022-07-27T10:25:32.473Z,23.40
2022-07-27T10:28:17.475Z,24.10
2022-07-27T10:30:48.253Z,25.70
2022-07-27T10:33:42.623Z,29.40
2022-07-27T10:36:39.356Z,28.10
2022-07-27T10:39:07.930Z,26.80
2022-07-27T10:41:41.731Z,26.60
2022-07-27T10:44:15.379Z,26.20
2022-07-27T10:47:00.573Z,25.60
2022-07-27T10:49:40.178Z,24.80
2022-07-27T10:52:43.584Z,24.80
2022-07-27T10:55:31.351Z,25.20
2022-07-27T10:58:04.223Z,25.80
2022-07-27T11:00:56.768Z,25.80
2022-07-27T11:03:30.789Z,25.60
2022-07-27T11:06:31.515Z,24.90
2022-07-27T11:09:46.446Z,24.50
2022-07-27T11:11:44.951Z,24.00
2022-07-27T11:14:12.933Z,23.20
2022-07-27T11:16:54.988Z,22.90
2022-07-27T11:19:24.615Z,23.00
2022-07-27T11:21:53.856Z,22.50
2022-07-27T11:24:23.458Z,22.10
2022-07-27T11:26:52.669Z,21.70
2022-07-27T11:29:22.725Z,21.40
2022-07-27T11:31:57.799Z,21.10
2022-07-27T11:34:31.402Z,21.20
2022-07-27T11:37:02.091Z,21.30
2022-07-27T11:42:23.420Z,21.70
2022-07-27T11:44:52.963Z,21.80
2022-07-27T11:47:23.943Z,21.60
2022-07-27T11:49:52.127Z,21.30
2022-07-27T11:52:19.694Z,21.10
2022-07-27T11:54:52.416Z,21.30
2022-07-27T11:57:20.614Z,21.90
2022-07-27T11:59:48.215Z,22.50
2022-07-27T12:02:18.019Z,22.70
2022-07-27T12:04:47.630Z,22.90
2022-07-27T12:07:19.781Z,23.60
2022-07-27T12:09:59.517Z,24.10
2022-07-27T12:12:31.506Z,24.40
2022-07-27T12:18:06.516Z,24.40
2022-07-27T12:20:35.583Z,23.90
2022-07-27T12:23:07.822Z,23.60
2022-07-27T12:25:36.302Z,23.30
2022-07-27T12:28:05.705Z,23.30
2022-07-27T12:30:42.094Z,23.70
2022-07-27T12:33:34.751Z,23.70
2022-07-27T12:36:04.185Z,23.80
2022-07-27T12:38:46.464Z,23.50
2022-07-27T12:41:29.571Z,23.30
2022-07-27T12:44:10.916Z,23.10
2022-07-27T12:46:55.656Z,23.10
2022-07-27T12:49:29.439Z,23.10
2022-07-27T12:52:09.524Z,23.10
2022-07-27T12:54:38.069Z,23.60
2022-07-27T12:57:05.465Z,23.90
2022-07-27T12:59:32.872Z,24.30
2022-07-27T13:02:00.632Z,24.40
2022-07-27T13:04:28.352Z,24.00
2022-07-27T13:06:55.790Z,23.70
2022-07-27T13:09:23.387Z,23.30
2022-07-27T13:11:50.848Z,23.10
2022-07-27T13:14:18.316Z,22.80
2022-07-27T13:16:45.738Z,22.50
2022-07-27T13:19:16.527Z,22.40
2022-07-27T13:21:44.535Z,22.50
2022-07-27T13:24:11.933Z,23.10
2022-07-27T13:26:40.987Z,23.60
2022-07-27T13:29:08.381Z,23.70
2022-07-27T13:31:37.027Z,23.90
2022-07-27T13:34:04.545Z,23.70
2022-07-27T13:36:31.984Z,23.40
2022-07-27T13:38:59.443Z,23.00
2022-07-27T13:41:26.879Z,22.60
2022-07-27T13:43:54.192Z,22.30
2022-07-27T13:46:21.689Z,22.00
2022-07-27T13:48:49.162Z,21.80
2022-07-27T13:51:16.526Z,21.40
2022-07-27T13:53:43.897Z,21.20
2022-07-27T13:56:11.227Z,21.00
2022-07-27T13:58:40.994Z,20.90
2022-07-27T14:01:08.721Z,21.30
2022-07-27T14:03:36.383Z,22.00
2022-07-27T14:06:03.863Z,22.50
2022-07-27T14:08:33.871Z,23.00
2022-07-27T14:11:02.219Z,23.00
2022-07-27T14:13:32.662Z,23.10
2022-07-27T14:16:01.030Z,23.30
2022-07-27T14:18:30.479Z,23.40
2022-07-27T14:21:00.374Z,23.30
2022-07-27T14:23:28.459Z,22.90
2022-07-27T14:25:57.962Z,22.60
2022-07-27T14:28:26.063Z,22.40
2022-07-27T14:30:53.823Z,22.30
2022-07-27T14:33:22.469Z,22.20
2022-07-27T14:35:50.523Z,22.10
2022-07-27T14:38:28.377Z,22.00
2022-07-27T14:41:00.599Z,22.20
2022-07-27T14:43:29.107Z,22.20
2022-07-27T14:45:57.015Z,22.20
2022-07-27T14:48:42.164Z,22.30
2022-07-27T14:51:12.125Z,22.40
2022-07-27T14:53:39.558Z,22.70
2022-07-27T14:56:06.946Z,22.90
2022-07-27T14:58:34.359Z,22.70
2022-07-27T15:01:02.034Z,22.70
2022-07-27T15:03:29.431Z,22.50
2022-07-27T15:05:57.225Z,22.30
2022-07-27T15:08:24.591Z,22.00
2022-07-27T15:10:51.955Z,21.70
2022-07-27T15:13:19.389Z,21.40
2022-07-27T15:15:52.516Z,21.20
2022-07-27T15:18:21.027Z,21.00
2022-07-27T15:20:48.522Z,20.80
2022-07-27T15:23:16.316Z,20.80
2022-07-27T15:25:43.664Z,20.80
2022-07-27T15:28:11.929Z,20.90
2022-07-27T15:30:39.367Z,21.00
2022-07-27T15:33:07.419Z,21.30
2022-07-27T15:35:34.986Z,21.70
2022-07-27T15:38:02.555Z,22.30
2022-07-27T15:40:40.081Z,22.60
2022-07-27T15:43:13.675Z,23.00
2022-07-27T15:45:43.077Z,23.50
2022-07-27T15:48:12.225Z,23.60
2022-07-27T15:50:41.883Z,23.50
2022-07-27T15:53:09.941Z,23.20
2022-07-27T15:55:37.839Z,22.80
2022-07-27T15:58:06.576Z,22.50
2022-07-27T16:00:40.519Z,22.50
2022-07-27T16:03:10.526Z,22.50
2022-07-27T16:05:39.361Z,22.50
2022-07-27T16:08:09.623Z,22.30
2022-07-27T16:10:41.664Z,22.10
2022-07-27T16:13:10.883Z,21.80
2022-07-27T16:15:56.748Z,21.40
2022-07-27T16:18:24.243Z,21.10
2022-07-27T16:20:52.426Z,21.00
2022-07-27T16:23:21.653Z,20.90
2022-07-27T16:26:04.027Z,20.80
2022-07-27T16:28:34.856Z,20.80
2022-07-27T16:31:02.888Z,20.80
2022-07-27T16:33:30.565Z,21.00
2022-07-27T16:35:58.306Z,21.30
2022-07-27T16:38:25.775Z,21.50
2022-07-27T16:40:53.196Z,21.80
2022-07-27T16:43:20.585Z,21.80
2022-07-27T16:45:47.970Z,21.90
2022-07-27T16:48:15.341Z,21.90
2022-07-27T16:50:42.671Z,21.70
2022-07-27T16:53:10.634Z,21.50
2022-07-27T16:55:37.991Z,21.30
2022-07-27T16:58:05.468Z,21.10
2022-07-27T17:00:38.191Z,20.90
2022-07-27T17:03:10.087Z,20.80
2022-07-27T17:05:37.599Z,20.70
2022-07-27T17:08:06.075Z,20.60
2022-07-27T17:10:33.459Z,20.50
2022-07-27T17:13:01.633Z,20.50
2022-07-27T17:15:29.028Z,20.30
2022-07-27T17:17:56.472Z,20.30
2022-07-27T17:20:28.106Z,20.20
2022-07-27T17:23:04.477Z,20.00
2022-07-27T17:25:31.855Z,20.00
2022-07-27T17:27:59.215Z,19.90
2022-07-27T17:30:26.544Z,19.80
2022-07-27T17:32:54.117Z,19.60
2022-07-27T17:35:21.504Z,19.60
2022-07-27T17:38:05.745Z,19.60
2022-07-27T17:40:35.527Z,19.50
2022-07-27T17:43:03.029Z,19.50
2022-07-27T17:45:31.274Z,19.50
2022-07-27T17:47:58.666Z,19.40
2022-07-27T17:50:26.288Z,19.40
2022-07-27T17:52:56.378Z,19.40
2022-07-27T17:55:23.832Z,19.30
2022-07-27T17:57:51.318Z,19.30
2022-07-27T18:00:18.795Z,19.30
2022-07-27T18:02:46.513Z,19.30
2022-07-27T18:05:14.490Z,19.30
2022-07-27T18:07:41.782Z,19.30
2022-07-27T18:10:09.633Z,19.30
2022-07-27T18:12:37.275Z,19.20
2022-07-27T18:15:23.497Z,19.10
2022-07-27T18:17:50.881Z,19.10
2022-07-27T18:20:18.258Z,19.10
2022-07-27T18:22:45.609Z,19.10
2022-07-27T18:25:13.206Z,19.00
2022-07-27T18:27:40.865Z,19.00
2022-07-27T18:30:08.792Z,19.00
2022-07-27T18:32:36.903Z,19.10
2022-07-27T18:35:05.408Z,19.00
2022-07-27T18:37:32.741Z,18.90
2022-07-27T18:40:00.688Z,18.80
2022-07-27T18:42:28.044Z,18.70
2022-07-27T18:44:55.430Z,18.60
2022-07-27T18:47:22.956Z,18.60
2022-07-27T18:49:50.289Z,18.50
2022-07-27T18:52:17.787Z,18.50
2022-07-27T18:54:45.127Z,18.50
2022-07-27T18:57:12.500Z,18.50
2022-07-27T18:59:40.858Z,18.40
2022-07-27T19:02:09.002Z,18.40
2022-07-27T19:04:36.686Z,18.30
2022-07-27T19:07:06.390Z,18.20
2022-07-27T19:09:34.512Z,18.10
2022-07-27T19:12:05.994Z,18.00
2022-07-27T19:14:37.264Z,17.90
2022-07-27T19:17:05.508Z,17.80
2022-07-27T19:19:32.940Z,17.80
2022-07-27T19:22:00.404Z,17.70
2022-07-27T19:24:28.105Z,17.70
2022-07-27T19:26:55.536Z,17.60
2022-07-27T19:29:23.029Z,17.50
2022-07-27T19:31:50.562Z,17.40
2022-07-27T19:34:18.434Z,17.30
2022-07-27T19:36:46.066Z,17.20
2022-07-27T19:39:13.942Z,17.10
2022-07-27T19:41:41.926Z,17.10
2022-07-27T19:44:09.808Z,17.10
2022-07-27T19:46:37.885Z,17.00
2022-07-27T19:49:05.360Z,16.90
2022-07-27T19:51:32.805Z,16.80
2022-07-27T19:54:00.354Z,16.80
2022-07-27T19:56:27.888Z,16.80
2022-07-27T19:58:55.231Z,16.70
2022-07-27T20:01:22.769Z,16.70
2022-07-27T20:03:54.524Z,16.70
2022-07-27T20:06:23.983Z,16.70
2022-07-27T20:08:53.892Z,16.60
2022-07-27T20:11:21.279Z,16.50
2022-07-27T20:13:48.649Z,16.50
2022-07-27T20:16:17.709Z,16.30
2022-07-27T20:18:45.269Z,16.20
2022-07-27T20:21:20.115Z,16.10
2022-07-27T20:23:52.615Z,16.10
2022-07-27T20:26:20.685Z,16.00
2022-07-27T20:28:49.784Z,16.00
2022-07-27T20:31:17.663Z,16.00
2022-07-27T20:33:45.122Z,15.90
2022-07-27T20:36:12.577Z,15.90
2022-07-27T20:38:39.975Z,15.90
2022-07-27T20:41:07.286Z,15.90
2022-07-27T20:43:34.794Z,15.80
2022-07-27T20:46:03.500Z,15.70
2022-07-27T20:48:31.149Z,15.80
2022-07-27T20:50:59.773Z,15.80
2022-07-27T20:53:27.183Z,15.80
2022-07-27T20:55:54.591Z,15.90
2022-07-27T20:58:22.089Z,15.90
2022-07-27T21:00:49.754Z,15.90
2022-07-27T21:03:17.195Z,15.80
2022-07-27T21:05:44.706Z,15.70
2022-07-27T21:08:12.072Z,15.80
2022-07-27T21:10:39.492Z,15.80
2022-07-27T21:13:06.927Z,15.70
2022-07-27T21:15:34.508Z,15.70
2022-07-27T21:18:02.462Z,15.70
2022-07-27T21:20:30.064Z,15.70
2022-07-27T21:23:15.719Z,15.70
2022-07-27T21:25:43.993Z,15.70
2022-07-27T21:28:16.865Z,15.70
2022-07-27T21:30:47.435Z,15.60
2022-07-27T21:33:15.281Z,15.60
2022-07-27T21:35:42.633Z,15.50
2022-07-27T21:38:10.078Z,15.40
2022-07-27T21:40:37.500Z,15.30
2022-07-27T21:43:04.829Z,15.30
2022-07-27T21:45:32.364Z,15.20
2022-07-27T21:47:59.784Z,15.10
2022-07-27T21:50:27.475Z,15.10
2022-07-27T21:52:55.219Z,15.10
2022-07-27T21:55:23.351Z,15.10
2022-07-27T21:57:51.352Z,15.10
2022-07-27T22:00:24.260Z,15.10
2022-07-27T22:02:52.631Z,15.00
2022-07-27T22:05:22.562Z,14.90
2022-07-27T22:07:51.234Z,14.90
2022-07-27T22:10:19.556Z,14.80
2022-07-27T22:12:47.067Z,14.90
2022-07-27T22:15:14.439Z,14.90
2022-07-27T22:17:50.142Z,14.90
2022-07-27T22:20:19.305Z,14.90
2022-07-27T22:22:47.297Z,14.90
2022-07-27T22:25:14.907Z,14.90
2022-07-27T22:27:42.352Z,14.80
2022-07-27T22:30:10.288Z,14.80
2022-07-27T22:32:37.732Z,14.80
2022-07-27T22:35:05.657Z,14.80
2022-07-27T22:37:33.083Z,14.70
2022-07-27T22:40:00.469Z,14.70
2022-07-27T22:42:28.202Z,14.70
2022-07-27T22:44:55.629Z,14.60
2022-07-27T22:47:23.381Z,14.70
2022-07-27T22:49:51.007Z,14.60
2022-07-27T22:52:18.655Z,14.60
2022-07-27T22:54:46.153Z,14.60
2022-07-27T22:57:13.523Z,14.60
2022-07-27T22:59:41.001Z,14.60
2022-07-27T23:02:08.831Z,14.60
2022-07-27T23:04:36.394Z,14.50
2022-07-27T23:07:03.983Z,14.60
2022-07-27T23:09:31.363Z,14.60
2022-07-27T23:11:58.776Z,14.60
2022-07-27T23:14:26.169Z,14.50
2022-07-27T23:16:53.634Z,14.50
2022-07-27T23:19:21.058Z,14.40
2022-07-27T23:21:49.190Z,14.50
2022-07-27T23:24:28.723Z,14.50
2022-07-27T23:26:56.892Z,14.50
2022-07-27T23:29:24.230Z,14.40
2022-07-27T23:31:51.810Z,14.40
2022-07-27T23:34:20.179Z,14.50
2022-07-27T23:36:47.466Z,14.50
2022-07-27T23:39:14.845Z,14.40
2022-07-27T23:41:45.316Z,14.40
2022-07-27T23:44:17.143Z,14.40
2022-07-27T23:46:44.739Z,14.40
2022-07-27T23:49:12.176Z,14.40
2022-07-27T23:51:39.550Z,14.40
2022-07-27T23:54:06.959Z,14.40
2022-07-27T23:56:34.332Z,14.30
2022-07-27T23:59:01.664Z,14.30
